CheckWX is a tool to help pilots better visualize weather data.  It is not intended as a substitute for an official pre-flight weather briefing.

03:03:41 UTC

KISP TAF
Long Island Mac Arthur Airport
New York, New York, USA
KISP 170230Z 1703/1724 VRB05KT P6SM BKN060 BKN100 BKN250 FM171000 32004KT P6SM FEW060 BKN250 FM171400 35008KT P6SM FEW060 BKN250 FM172300 02005KT P6SM SCT250

Feb-17@
03:00 UTC

Feb-17 @ 03:00 UTC

Feb-17@
10:00 UTC

Feb-17 @ 10:00 UTC

KISP 170230Z 1703/1724 VRB05KT P6SM BKN060 BKN100 BKN250
Wind
  • Variable at 5 KTS
Cloud Levels
  • Broken at 6,000' AGL
  • Broken at 10,000' AGL
  • Broken at 25,000' AGL

Feb-17@
10:00 UTC

Feb-17 @ 10:00 UTC

Feb-17@
14:00 UTC

Feb-17 @ 14:00 UTC

FM171000 32004KT P6SM FEW060 BKN250

From

From Standard forecast or significant change

Wind
  • 320° at 4 KTS
Cloud Levels
  • Few at 6,000' AGL
  • Broken at 25,000' AGL

Feb-17@
14:00 UTC

Feb-17 @ 14:00 UTC

Feb-17@
23:00 UTC

Feb-17 @ 23:00 UTC

FM171400 35008KT P6SM FEW060 BKN250

From

From Standard forecast or significant change

Wind
  • 350° at 8 KTS
Cloud Levels
  • Few at 6,000' AGL
  • Broken at 25,000' AGL

Feb-17@
23:00 UTC

Feb-17 @ 23:00 UTC

Feb-18@
00:00 UTC

Feb-18 @ 00:00 UTC

FM172300 02005KT P6SM SCT250

From

From Standard forecast or significant change

Wind
  • 020° at 5 KTS
Cloud Levels
  • Scattered at 25,000' AGL